Eglin Air Force Base
KVPS : now visible

Airfield :











YOU CAN JOIN US ON...

 
LOGIN :

Register | Disclaimer

   EN    FR    IT 

 









Legend :    VFR   Marginal VFR   IFR   Intensive IFR   Very Intensive IFR
Visi :
Ceiling :
>= 8 km
>= 3000ft
5 to 8 km
1000 to 3000 ft
1500m to 5 km
500 to 1000 ft
800 to 1500m
200 to 500 ft
< 800m
< 200 ft
Symbols :   Thunderstorms  Fog  Heavy snow  Heavy precipitations  Wind > 20 kt






- Airport Elevation : 87 ft
- IATA code : VPS


KVPS - Eglin Air Force Base

CURRENT METAR :
  • 200356Z AUTO 01004KT 10SM OVC140 17/10 A2997 RMK AO2 SLP155 T01660102 $

EXPIRED METARs :
  • 200256Z AUTO 01005KT 10SM OVC160 16/12 A2996 RMK AO2 SLP152 T01590123 52013 $
  • 200156Z AUTO 00000KT 10SM SCT170 18/12 A2994 RMK AO2 SLP145 T01750122 $

TAF TAF KVPS
Valid from the 20 at 01:00 until the 21 at 07:00 UTC


200100Z 2001/2107 23005KT 9999 BKN170 QNH2992INS
BECMG 2005/2006 02005KT 9999 BKN100 QNH2993INS
BECMG 2015/2016 03006KT 9999 SCT080 QNH3002INS
BECMG 2018/2019 24008KT 9999 FEW080 QNH2993INS
BECMG 2101/2102 27006KT 9999 SKC QNH2998INS TX25/2020Z TN12/2011Z
KZJX FIR / North America



MET'MAP, your aeronautical weather chart ! - Copyright ORBIFLY December 2007 - Disclaimer

ORBIFLY MET'MAP TEAM :

Programming & Development : Alexandra Zaïnal
Concept & original design : Baudouin d'Aumeries
Assistance for programming : Marc-Olivier Méhu
Technical & hardware support : Manuel Goepfert

Contact : metmap@orbifly.com




SOURCES & CREDITS :

   NOAA       Earth
Advisory